Time;durP1;ratioP1;P1;durP2;ratioP2;P2;SDS_P1;SDS_P2;PMS_P1;PMS_P2;Temp;Humidity;BMP_temperature;BMP_pressure;BME280_temperature;BME280_humidity;BME280_pressure;Samples;Min_cycle;Max_cycle;Signal;HPM_P1;HPM_P2
2022/10/22 00:00:27;;;;;;;18.73;13.52;;;14.20;99.90;;;;;;5034043;28;96187;-77
2022/10/22 00:02:54;;;;;;;16.67;13.30;;;14.10;99.90;;;;;;5033438;28;108922;-77
2022/10/22 00:05:21;;;;;;;17.35;11.82;;;14.10;99.90;;;;;;5034139;28;92454;-77
2022/10/22 00:07:48;;;;;;;19.50;13.00;;;14.10;99.90;;;;;;5034493;28;92465;-77
2022/10/22 00:10:16;;;;;;;19.83;12.55;;;14.00;99.90;;;;;;5034316;28;93325;-77
2022/10/22 00:12:43;;;;;;;15.23;12.02;;;14.00;99.90;;;;;;5035378;28;92374;-77
2022/10/22 00:15:11;;;;;;;16.55;12.27;;;14.00;99.90;;;;;;5035336;28;92424;-77
2022/10/22 00:17:38;;;;;;;14.38;12.45;;;13.90;99.90;;;;;;5035809;28;91738;-77
2022/10/22 00:20:05;;;;;;;16.52;12.13;;;13.90;99.90;;;;;;5034053;28;95684;-77
2022/10/22 00:22:32;;;;;;;19.63;13.10;;;13.90;99.90;;;;;;5034726;28;93023;-77
2022/10/22 00:24:59;;;;;;;17.90;13.23;;;13.80;99.90;;;;;;5034134;28;94810;-77
2022/10/22 00:27:26;;;;;;;17.17;11.98;;;13.80;99.90;;;;;;5034113;28;93031;-77
2022/10/22 00:29:53;;;;;;;18.48;13.23;;;13.80;99.90;;;;;;5034138;27;95831;-77
2022/10/22 00:32:20;;;;;;;15.50;12.20;;;13.80;99.90;;;;;;5034997;28;93217;-77
2022/10/22 00:34:47;;;;;;;20.63;13.75;;;13.70;99.90;;;;;;5033888;28;93560;-77
2022/10/22 00:37:14;;;;;;;20.70;12.52;;;13.70;99.90;;;;;;5035073;27;92472;-77
2022/10/22 00:39:40;;;;;;;17.38;12.75;;;13.70;99.90;;;;;;5019841;28;95757;-77
2022/10/22 00:42:16;;;;;;;18.45;12.40;;;13.70;99.90;;;;;;5038980;28;93143;-77
2022/10/22 00:45:05;;;;;;;17.42;12.88;;;13.70;99.90;;;;;;5054139;27;92436;-77
2022/10/22 00:47:58;;;;;;;15.95;12.18;;;13.70;99.90;;;;;;5038480;28;92527;-77
2022/10/22 00:50:42;;;;;;;18.55;12.70;;;13.70;99.90;;;;;;5052469;27;96648;-78
2022/10/22 00:53:14;;;;;;;19.50;11.38;;;13.60;99.90;;;;;;5053947;27;97128;-77
2022/10/22 00:55:44;;;;;;;19.40;13.20;;;13.60;99.90;;;;;;5037223;28;92551;-77
2022/10/22 00:58:12;;;;;;;16.85;12.05;;;13.60;99.90;;;;;;5037547;27;92602;-77
2022/10/22 01:00:39;;;;;;;18.70;12.32;;;13.50;99.90;;;;;;5036811;28;95711;-77
2022/10/22 01:03:07;;;;;;;19.20;12.90;;;13.50;99.90;;;;;;5036375;28;111525;-77
2022/10/22 01:05:43;;;;;;;18.10;12.68;;;13.60;99.90;;;;;;5036947;28;92656;-77
2022/10/22 01:08:24;;;;;;;19.10;13.40;;;13.60;99.90;;;;;;5038886;27;91660;-77
2022/10/22 01:11:20;;;;;;;19.92;12.35;;;13.60;99.90;;;;;;5036733;28;95798;-77
2022/10/22 01:14:15;;;;;;;19.40;12.75;;;13.50;99.90;;;;;;5038263;28;94103;-77
2022/10/22 01:17:01;;;;;;;18.30;12.35;;;13.50;99.90;;;;;;5037023;28;94840;-77
2022/10/22 01:19:31;;;;;;;22.48;13.60;;;13.50;99.90;;;;;;5038240;28;92469;-77
2022/10/22 01:22:13;;;;;;;18.50;12.50;;;13.40;99.90;;;;;;5036615;28;93058;-77
2022/10/22 01:25:10;;;;;;;16.40;12.25;;;13.40;99.90;;;;;;5036084;28;95772;-77
2022/10/22 01:27:58;;;;;;;17.73;11.57;;;13.50;99.90;;;;;;5036629;28;92490;-77
2022/10/22 01:30:25;;;;;;;18.48;12.52;;;13.40;99.90;;;;;;5037111;28;92697;-77
2022/10/22 01:32:58;;;;;;;20.50;12.70;;;13.30;99.90;;;;;;5037650;28;93298;-77
2022/10/22 01:35:33;;;;;;;19.17;12.57;;;13.40;99.90;;;;;;5037064;28;92914;-77
2022/10/22 01:38:24;;;;;;;17.52;10.63;;;13.40;99.90;;;;;;5036203;28;92462;-77
2022/10/22 01:40:52;;;;;;;18.70;12.75;;;13.40;99.90;;;;;;5038028;28;92309;-77
2022/10/22 01:43:19;;;;;;;18.42;12.77;;;13.30;99.90;;;;;;5036063;28;95728;-77
2022/10/22 01:45:52;;;;;;;22.80;13.35;;;13.30;99.90;;;;;;5036062;28;95328;-77
2022/10/22 01:48:51;;;;;;;18.70;12.98;;;13.40;99.90;;;;;;5019575;28;92471;-77
2022/10/22 01:51:48;;;;;;;16.67;12.35;;;13.30;99.90;;;;;;5037616;28;92416;-77
2022/10/22 01:54:34;;;;;;;19.38;12.07;;;13.30;99.90;;;;;;5035919;28;95954;-77
2022/10/22 01:57:47;;;;;;;22.20;12.35;;;13.30;99.90;;;;;;5036408;28;92435;-77
2022/10/22 02:00:17;;;;;;;18.75;12.57;;;13.30;99.90;;;;;;5019475;28;93013;-77
2022/10/22 02:02:48;;;;;;;23.23;12.98;;;13.30;99.90;;;;;;5037627;28;92385;-77
2022/10/22 02:05:20;;;;;;;17.25;12.48;;;13.40;99.90;;;;;;5035838;28;95677;-77
2022/10/22 02:08:19;;;;;;;18.30;12.55;;;13.40;99.90;;;;;;5036754;28;93079;-77
2022/10/22 02:10:47;;;;;;;19.58;12.43;;;13.40;99.90;;;;;;5034823;28;94857;-77
2022/10/22 02:13:25;;;;;;;20.85;12.30;;;13.40;99.90;;;;;;5035624;28;92810;-77
2022/10/22 02:15:54;;;;;;;17.50;12.07;;;13.40;99.90;;;;;;5018946;28;94306;-77
2022/10/22 02:18:24;;;;;;;17.20;11.50;;;13.40;99.90;;;;;;5018844;28;94077;-77
2022/10/22 02:20:52;;;;;;;20.67;11.57;;;13.40;99.90;;;;;;5035451;28;92452;-78
2022/10/22 02:23:20;;;;;;;21.30;12.73;;;13.40;99.90;;;;;;5035456;27;92506;-77
2022/10/22 02:25:56;;;;;;;20.27;12.45;;;13.40;99.90;;;;;;5035514;28;92459;-77
2022/10/22 02:29:04;;;;;;;18.80;12.20;;;13.50;99.90;;;;;;5019756;28;95309;-77
2022/10/22 02:31:35;;;;;;;15.13;11.88;;;13.50;99.90;;;;;;5035683;28;92478;-78
2022/10/22 02:34:09;;;;;;;16.55;11.10;;;13.40;99.90;;;;;;5035764;28;92378;-78
2022/10/22 02:36:39;;;;;;;19.60;11.10;;;13.40;99.90;;;;;;5033971;28;98069;-77
2022/10/22 02:39:07;;;;;;;19.75;11.48;;;13.50;99.90;;;;;;5036685;28;95416;-77
2022/10/22 02:41:35;;;;;;;16.88;10.85;;;13.50;99.90;;;;;;5036816;28;92425;-77
2022/10/22 02:44:09;;;;;;;19.65;12.18;;;13.50;99.90;;;;;;5034957;28;101386;-77
2022/10/22 02:46:38;;;;;;;12.35;10.82;;;13.50;99.90;;;;;;5036557;28;93337;-77
2022/10/22 02:49:05;;;;;;;15.45;11.15;;;13.40;99.90;;;;;;5034851;28;94062;-77
2022/10/22 02:51:32;;;;;;;18.30;11.07;;;13.40;99.90;;;;;;5018658;28;92450;-77
2022/10/22 02:53:59;;;;;;;19.67;12.02;;;13.40;99.90;;;;;;5037072;28;91694;-77
2022/10/22 02:56:26;;;;;;;17.58;10.57;;;13.40;99.90;;;;;;5035056;28;95751;-77
2022/10/22 02:58:53;;;;;;;15.98;11.15;;;13.40;99.90;;;;;;5034498;28;95587;-77
2022/10/22 03:01:20;;;;;;;19.40;11.18;;;13.40;99.90;;;;;;5034670;27;94818;-77
2022/10/22 03:03:47;;;;;;;17.90;11.05;;;13.40;99.90;;;;;;5036743;28;92865;-77
2022/10/22 03:06:14;;;;;;;17.15;11.10;;;13.30;99.90;;;;;;5036028;28;100633;-77
2022/10/22 03:08:41;;;;;;;18.42;11.27;;;13.30;99.90;;;;;;5034944;28;93054;-77
2022/10/22 03:11:08;;;;;;;18.75;11.77;;;13.30;99.90;;;;;;5035059;28;92438;-77
2022/10/22 03:13:35;;;;;;;21.98;12.05;;;13.30;99.90;;;;;;5034938;28;92502;-77
2022/10/22 03:16:02;;;;;;;16.80;12.30;;;13.30;99.90;;;;;;5035890;28;93190;-77
2022/10/22 03:18:29;;;;;;;12.00;10.52;;;13.20;99.90;;;;;;5036363;28;93154;-77
2022/10/22 03:21:26;;;;;;;15.50;10.48;;;13.20;99.90;;;;;;5035993;28;92356;-77
2022/10/22 03:23:54;;;;;;;18.27;11.27;;;13.30;99.90;;;;;;5051136;27;92493;-77
2022/10/22 03:26:21;;;;;;;22.77;12.30;;;13.20;99.90;;;;;;5034844;28;95523;-77
2022/10/22 03:28:48;;;;;;;16.98;11.45;;;13.20;99.90;;;;;;5017846;28;95521;-77
2022/10/22 03:31:15;;;;;;;18.30;11.73;;;13.20;99.90;;;;;;5034854;28;92536;-77
2022/10/22 03:33:42;;;;;;;18.08;11.60;;;13.20;99.90;;;;;;5036153;28;92319;-77
2022/10/22 03:36:09;;;;;;;18.02;11.15;;;13.20;99.90;;;;;;5034668;27;96207;-77
2022/10/22 03:38:38;;;;;;;22.25;12.50;;;13.10;99.90;;;;;;5035750;28;92840;-77
2022/10/22 03:41:05;;;;;;;18.58;11.68;;;13.10;99.90;;;;;;5035204;28;100546;-77
2022/10/22 03:43:36;;;;;;;18.58;12.02;;;13.10;99.90;;;;;;5036301;28;91717;-77
2022/10/22 03:46:03;;;;;;;19.30;12.90;;;13.10;99.90;;;;;;5034681;28;93863;-77
2022/10/22 03:48:30;;;;;;;22.85;14.18;;;13.10;99.90;;;;;;5035732;28;92961;-77
2022/10/22 03:50:57;;;;;;;16.45;12.50;;;13.10;99.90;;;;;;5034690;28;94848;-77
2022/10/22 03:53:24;;;;;;;20.10;12.80;;;13.10;99.90;;;;;;5035939;28;92400;-77
2022/10/22 03:55:51;;;;;;;23.35;13.88;;;13.10;99.90;;;;;;5033802;28;95703;-77
2022/10/22 03:58:18;;;;;;;21.95;12.63;;;13.20;99.90;;;;;;5034155;28;93202;-77
2022/10/22 04:00:45;;;;;;;21.65;13.98;;;13.20;99.90;;;;;;5035522;28;92438;-77
2022/10/22 04:03:12;;;;;;;16.60;12.95;;;13.20;99.90;;;;;;5035787;28;92345;-77
2022/10/22 04:05:39;;;;;;;23.35;13.52;;;13.20;99.90;;;;;;5033881;28;95917;-77
2022/10/22 04:08:06;;;;;;;19.10;13.07;;;13.20;99.90;;;;;;5034625;27;95981;-77
2022/10/22 04:10:33;;;;;;;22.48;13.98;;;13.20;99.90;;;;;;5034490;28;92528;-77
2022/10/22 04:13:00;;;;;;;15.70;13.35;;;13.20;99.90;;;;;;5034562;27;92689;-77
2022/10/22 04:15:27;;;;;;;23.95;14.20;;;13.20;99.90;;;;;;5037665;28;95702;-77
2022/10/22 04:17:54;;;;;;;19.05;12.55;;;13.20;99.90;;;;;;5037520;28;95590;-77
2022/10/22 04:20:21;;;;;;;21.73;14.85;;;13.20;99.90;;;;;;5037869;28;92502;-77
2022/10/22 04:22:48;;;;;;;19.35;13.57;;;13.10;99.90;;;;;;5037638;28;92995;-77
2022/10/22 04:25:15;;;;;;;20.67;13.45;;;13.10;99.90;;;;;;5020481;28;95814;-77
2022/10/22 04:27:42;;;;;;;19.55;13.38;;;13.10;99.90;;;;;;5038872;28;92480;-77
2022/10/22 04:30:10;;;;;;;20.15;13.52;;;13.10;99.90;;;;;;5038781;28;92409;-77
2022/10/22 04:32:36;;;;;;;21.75;12.52;;;13.10;99.90;;;;;;5039172;28;92239;-77
2022/10/22 04:35:04;;;;;;;20.23;13.73;;;13.10;99.90;;;;;;5037010;28;95759;-77
2022/10/22 04:37:31;;;;;;;21.70;13.60;;;13.10;99.90;;;;;;5037290;28;92710;-77
2022/10/22 04:39:58;;;;;;;19.30;12.32;;;13.10;99.90;;;;;;5037332;28;94725;-77
2022/10/22 04:42:25;;;;;;;21.67;14.15;;;13.10;99.90;;;;;;5037031;28;92532;-77
2022/10/22 04:44:52;;;;;;;22.55;13.50;;;13.10;99.90;;;;;;5037055;28;101750;-77
2022/10/22 04:47:19;;;;;;;20.30;13.90;;;13.10;99.90;;;;;;5038724;28;93119;-77
2022/10/22 04:49:46;;;;;;;21.50;13.48;;;13.10;99.90;;;;;;5020577;28;92409;-77
2022/10/22 04:52:13;;;;;;;25.52;14.82;;;13.10;99.90;;;;;;5020646;28;92451;-77
2022/10/22 04:54:39;;;;;;;22.67;14.63;;;13.10;99.90;;;;;;5053602;27;99669;-77
2022/10/22 04:57:06;;;;;;;22.38;13.90;;;13.10;99.90;;;;;;5020480;28;94643;-77
2022/10/22 04:59:33;;;;;;;20.58;13.80;;;13.10;99.90;;;;;;5037175;28;92506;-77
2022/10/22 05:02:00;;;;;;;23.33;14.63;;;13.10;99.90;;;;;;5036977;28;92915;-77
2022/10/22 05:04:27;;;;;;;22.20;15.18;;;13.10;99.90;;;;;;5035443;28;98126;-77
2022/10/22 05:06:54;;;;;;;18.73;12.82;;;13.10;99.90;;;;;;5037674;28;95531;-77
2022/10/22 05:09:21;;;;;;;18.67;13.35;;;13.10;99.90;;;;;;5036545;28;92489;-77
2022/10/22 05:11:50;;;;;;;21.00;13.30;;;13.10;99.90;;;;;;5037232;28;93126;-77
2022/10/22 05:14:22;;;;;;;22.48;14.20;;;13.10;99.90;;;;;;5037979;27;93348;-77
2022/10/22 05:16:50;;;;;;;21.33;15.10;;;13.10;99.90;;;;;;5019438;28;95714;-77
2022/10/22 05:19:22;;;;;;;23.90;14.93;;;13.10;99.90;;;;;;5037897;28;92316;-77
2022/10/22 05:21:55;;;;;;;26.27;16.05;;;13.10;99.90;;;;;;5036752;28;91718;-77
2022/10/22 05:24:23;;;;;;;22.98;14.10;;;13.10;99.90;;;;;;5037225;28;93259;-77
2022/10/22 05:26:51;;;;;;;18.85;13.77;;;13.10;99.90;;;;;;5053114;27;95910;-77
2022/10/22 05:29:18;;;;;;;21.05;14.57;;;13.10;99.90;;;;;;5034970;28;94832;-77
2022/10/22 05:31:45;;;;;;;23.48;14.48;;;13.10;99.90;;;;;;5037811;28;92580;-77
2022/10/22 05:34:13;;;;;;;32.13;16.63;;;13.00;99.90;;;;;;5019310;28;95423;-77
2022/10/22 05:36:40;;;;;;;24.02;16.05;;;13.00;99.90;;;;;;5036379;27;95892;-77
2022/10/22 05:39:07;;;;;;;22.17;14.88;;;13.00;99.90;;;;;;5036272;28;93155;-77
2022/10/22 05:41:35;;;;;;;26.25;16.50;;;13.00;99.90;;;;;;5036261;28;92564;-77
2022/10/22 05:44:02;;;;;;;28.55;16.10;;;13.00;99.90;;;;;;5019269;28;95691;-77
2022/10/22 05:46:32;;;;;;;25.52;16.33;;;13.00;99.90;;;;;;5038131;28;93076;-79
2022/10/22 05:49:02;;;;;;;27.48;16.63;;;13.00;99.90;;;;;;5036704;27;92339;-76
2022/10/22 05:51:32;;;;;;;25.92;16.85;;;13.00;99.90;;;;;;5037480;28;92441;-76
2022/10/22 05:54:01;;;;;;;23.80;16.90;;;13.00;99.90;;;;;;5035385;28;95653;-76
2022/10/22 05:56:30;;;;;;;25.35;16.50;;;12.90;99.90;;;;;;5036770;28;95282;-76
2022/10/22 05:58:58;;;;;;;29.27;18.50;;;12.90;99.90;;;;;;5036921;28;92346;-76
2022/10/22 06:01:31;;;;;;;27.90;16.42;;;12.90;99.90;;;;;;5037410;28;92431;-76
2022/10/22 06:04:03;;;;;;;30.02;18.17;;;13.00;99.90;;;;;;5036885;27;93409;-76
2022/10/22 06:06:38;;;;;;;28.15;17.63;;;12.90;99.90;;;;;;5037246;28;92843;-76
2022/10/22 06:09:13;;;;;;;25.23;16.67;;;12.90;99.90;;;;;;5035781;28;92511;-76
2022/10/22 06:11:40;;;;;;;26.00;17.50;;;12.90;99.90;;;;;;5036206;28;91754;-76
2022/10/22 06:14:08;;;;;;;25.52;16.27;;;12.90;99.90;;;;;;5035307;28;92412;-76
2022/10/22 06:16:35;;;;;;;27.35;17.33;;;12.90;99.90;;;;;;5036445;28;93195;-76
2022/10/22 06:19:02;;;;;;;24.50;15.80;;;12.90;99.90;;;;;;5035393;28;94811;-76
2022/10/22 06:21:30;;;;;;;24.77;16.63;;;12.90;99.90;;;;;;5036788;28;92399;-76
2022/10/22 06:23:59;;;;;;;24.40;16.83;;;12.90;99.90;;;;;;5036248;28;93148;-76
2022/10/22 06:26:26;;;;;;;26.33;17.08;;;13.00;99.90;;;;;;5036503;28;93193;-76
2022/10/22 06:28:54;;;;;;;31.70;17.33;;;13.00;99.90;;;;;;5035567;28;92437;-76
2022/10/22 06:31:23;;;;;;;24.85;16.60;;;13.10;99.90;;;;;;5036463;28;92425;-76
2022/10/22 06:33:50;;;;;;;24.65;16.38;;;13.10;99.90;;;;;;5035050;28;95743;-76
2022/10/22 06:36:20;;;;;;;25.10;15.75;;;13.20;99.90;;;;;;5035443;27;93125;-76
2022/10/22 06:38:51;;;;;;;21.70;15.32;;;13.30;99.90;;;;;;5036243;28;92352;-76
2022/10/22 06:41:18;;;;;;;20.85;14.85;;;13.40;99.90;;;;;;5051503;27;92716;-76
2022/10/22 06:43:48;;;;;;;20.30;14.35;;;13.40;99.90;;;;;;5035085;28;95836;-76
2022/10/22 06:46:18;;;;;;;17.50;13.68;;;13.50;99.90;;;;;;5034720;28;95582;-76
2022/10/22 06:48:49;;;;;;;19.95;14.00;;;13.60;99.90;;;;;;5051800;27;92444;-76
2022/10/22 06:51:17;;;;;;;20.63;14.07;;;13.70;99.90;;;;;;5036022;28;92404;-76
2022/10/22 06:53:44;;;;;;;17.45;13.10;;;13.70;99.90;;;;;;5034595;28;94949;-76
2022/10/22 06:56:14;;;;;;;19.02;13.63;;;13.80;99.90;;;;;;5034344;28;93044;-76
2022/10/22 06:58:41;;;;;;;20.15;13.05;;;13.80;99.90;;;;;;5051648;27;92543;-76
2022/10/22 07:01:12;;;;;;;16.02;12.10;;;13.90;99.90;;;;;;5036313;28;91680;-76
2022/10/22 07:03:40;;;;;;;20.48;13.57;;;13.90;99.90;;;;;;5034520;28;93163;-76
2022/10/22 07:06:10;;;;;;;19.85;12.65;;;14.00;99.90;;;;;;5034280;28;105020;-76
2022/10/22 07:08:37;;;;;;;17.30;12.13;;;14.00;99.90;;;;;;5034513;28;94933;-76
2022/10/22 07:11:16;;;;;;;20.48;13.00;;;14.00;99.90;;;;;;5034864;28;92414;-76
2022/10/22 07:13:44;;;;;;;16.50;11.70;;;14.10;99.90;;;;;;5035711;28;92441;-76
2022/10/22 07:16:11;;;;;;;16.58;10.98;;;14.10;99.90;;;;;;5035288;28;93212;-76
2022/10/22 07:18:40;;;;;;;13.98;11.85;;;14.20;99.90;;;;;;5034197;28;92428;-76
2022/10/22 07:21:08;;;;;;;18.98;12.07;;;14.40;99.90;;;;;;5035859;28;93011;-76
2022/10/22 07:23:35;;;;;;;17.05;11.82;;;14.50;99.90;;;;;;5035026;28;93115;-76
2022/10/22 07:26:07;;;;;;;14.30;10.90;;;14.60;99.90;;;;;;5001122;28;95573;-76
2022/10/22 07:28:37;;;;;;;14.05;10.20;;;14.70;99.90;;;;;;5034209;28;92570;-76
2022/10/22 07:31:06;;;;;;;15.73;11.38;;;14.80;99.90;;;;;;5034294;28;92506;-76
2022/10/22 07:33:33;;;;;;;16.73;11.30;;;14.90;99.90;;;;;;5032276;28;106330;-76
2022/10/22 07:36:04;;;;;;;17.98;10.75;;;15.00;99.90;;;;;;5034046;28;95307;-76
2022/10/22 07:38:31;;;;;;;17.58;10.85;;;15.00;99.90;;;;;;5017044;28;92599;-76
2022/10/22 07:40:58;;;;;;;14.02;11.07;;;15.10;99.90;;;;;;5035538;27;92508;-76
2022/10/22 07:43:26;;;;;;;13.85;9.80;;;15.20;99.90;;;;;;5033587;28;95732;-76
2022/10/22 07:45:54;;;;;;;17.52;10.73;;;15.30;99.90;;;;;;5035967;28;93172;-76
2022/10/22 07:48:22;;;;;;;12.82;9.40;;;15.40;99.90;;;;;;5035163;28;93286;-76
2022/10/22 07:50:50;;;;;;;15.25;10.05;;;15.60;99.90;;;;;;5034719;28;92316;-76
2022/10/22 07:53:17;;;;;;;13.45;9.25;;;15.70;99.90;;;;;;5033484;28;96020;-76
2022/10/22 07:55:48;;;;;;;13.20;8.77;;;15.80;99.90;;;;;;5050618;27;105427;-76
2022/10/22 07:58:18;;;;;;;13.95;9.38;;;15.80;99.90;;;;;;5033510;28;95352;-76
2022/10/22 08:00:46;;;;;;;14.60;9.32;;;15.90;99.90;;;;;;5036056;27;92991;-76
2022/10/22 08:03:15;;;;;;;13.23;10.15;;;16.00;99.90;;;;;;5035207;27;93176;-76
2022/10/22 08:05:43;;;;;;;14.85;9.82;;;16.10;99.90;;;;;;5035285;28;92899;-76
2022/10/22 08:08:11;;;;;;;14.80;8.95;;;16.10;99.90;;;;;;5035452;27;92400;-77
2022/10/22 08:10:39;;;;;;;11.63;8.35;;;16.20;99.90;;;;;;5034283;27;92520;-76
2022/10/22 08:13:07;;;;;;;10.65;7.38;;;16.30;99.90;;;;;;5035042;27;93206;-76
2022/10/22 08:15:34;;;;;;;12.80;8.25;;;16.30;99.90;;;;;;5033640;28;106484;-77
2022/10/22 08:18:01;;;;;;;12.93;7.60;;;16.40;99.90;;;;;;5034400;28;92579;-76
2022/10/22 08:20:28;;;;;;;13.05;7.95;;;16.40;99.90;;;;;;5050746;27;92512;-76
2022/10/22 08:22:55;;;;;;;14.07;7.93;;;16.50;99.90;;;;;;5033511;27;95710;-76
2022/10/22 08:25:22;;;;;;;15.98;8.52;;;16.60;99.90;;;;;;5034942;27;95427;-76
2022/10/22 08:27:49;;;;;;;12.15;8.07;;;16.60;99.90;;;;;;5035700;27;92911;-76
2022/10/22 08:30:16;;;;;;;14.20;7.40;;;16.60;99.90;;;;;;5034036;28;92653;-76
2022/10/22 08:32:44;;;;;;;11.82;7.20;;;16.70;99.90;;;;;;5016853;28;95573;-76
2022/10/22 08:35:11;;;;;;;11.00;6.50;;;16.70;99.90;;;;;;5034991;27;93163;-76
2022/10/22 08:37:38;;;;;;;16.13;6.47;;;16.80;99.90;;;;;;5035056;27;92335;-76
2022/10/22 08:40:06;;;;;;;11.40;7.15;;;16.80;99.90;;;;;;5035682;27;91826;-76
2022/10/22 08:42:36;;;;;;;10.55;5.82;;;16.90;99.90;;;;;;5034453;27;108419;-76
2022/10/22 08:45:16;;;;;;;11.63;5.72;;;17.00;99.90;;;;;;5033637;28;92997;-76
2022/10/22 08:47:49;;;;;;;12.93;6.07;;;17.00;99.90;;;;;;5034098;27;94846;-76
2022/10/22 08:50:22;;;;;;;11.03;5.77;;;17.00;99.90;;;;;;5033818;27;92774;-76
2022/10/22 08:52:55;;;;;;;11.40;5.88;;;17.10;99.90;;;;;;5035232;27;93353;-76
2022/10/22 08:55:23;;;;;;;10.60;5.60;;;17.10;99.90;;;;;;5033320;28;95559;-76
2022/10/22 08:58:33;;;;;;;11.07;5.90;;;17.20;99.90;;;;;;5017235;28;92955;-76
2022/10/22 09:01:04;;;;;;;15.50;6.35;;;17.30;99.90;;;;;;5008388;28;92536;-76
2022/10/22 09:03:44;;;;;;;11.27;5.65;;;17.30;99.90;;;;;;5038190;27;93169;-76
2022/10/22 09:06:15;;;;;;;7.03;5.13;;;17.40;99.90;;;;;;5037307;28;95689;-76
2022/10/22 09:08:44;;;;;;;11.30;5.25;;;17.40;99.90;;;;;;5038353;28;92488;-76
2022/10/22 09:11:25;;;;;;;11.55;5.47;;;17.50;99.90;;;;;;5036751;28;92518;-76
2022/10/22 09:13:54;;;;;;;12.35;4.63;;;17.60;99.90;;;;;;5037162;28;95794;-76
2022/10/22 09:16:35;;;;;;;8.20;5.88;;;17.70;99.90;;;;;;5037800;27;95551;-76
2022/10/22 09:19:24;;;;;;;9.90;5.50;;;17.70;99.90;;;;;;5038187;28;92490;-76
2022/10/22 09:22:00;;;;;;;9.23;4.55;;;17.80;99.90;;;;;;5037053;27;92513;-76
2022/10/22 09:24:35;;;;;;;7.68;4.85;;;17.80;99.90;;;;;;5037410;28;93381;-76
2022/10/22 09:27:14;;;;;;;10.45;4.90;;;17.80;99.90;;;;;;5036831;28;97262;-76
2022/10/22 09:29:42;;;;;;;8.98;4.70;;;17.80;99.90;;;;;;5038043;27;92452;-76
2022/10/22 09:32:09;;;;;;;8.52;4.53;;;17.80;99.90;;;;;;5038403;28;91710;-76
2022/10/22 09:34:37;;;;;;;12.95;5.00;;;17.90;99.90;;;;;;5036376;27;95748;-76
2022/10/22 09:37:07;;;;;;;12.25;5.15;;;18.00;99.90;;;;;;5036285;28;95535;-76
2022/10/22 09:39:40;;;;;;;11.52;4.95;;;18.10;99.90;;;;;;5036693;27;94844;-76
2022/10/22 09:42:09;;;;;;;12.37;4.97;;;18.10;99.90;;;;;;5036606;28;92478;-76
2022/10/22 09:44:36;;;;;;;6.88;4.53;;;18.20;99.90;;;;;;5036228;28;93754;-76
2022/10/22 09:47:27;;;;;;;10.77;5.15;;;18.30;99.90;;;;;;5037870;28;92921;-76
2022/10/22 09:50:27;;;;;;;5.97;4.90;;;18.40;99.90;;;;;;5038219;27;92512;-76
2022/10/22 09:52:59;;;;;;;10.20;4.97;;;18.50;99.90;;;;;;5036973;28;92412;-76
2022/10/22 09:55:27;;;;;;;12.80;4.78;;;18.40;99.90;;;;;;5053496;27;93141;-76
2022/10/22 09:57:56;;;;;;;12.05;5.45;;;18.50;99.90;;;;;;5053563;27;95752;-76
2022/10/22 10:00:25;;;;;;;8.63;4.20;;;18.60;99.90;;;;;;5036405;28;92561;-76
2022/10/22 10:02:57;;;;;;;11.20;4.85;;;18.80;99.90;;;;;;5035992;28;92555;-76
2022/10/22 10:05:30;;;;;;;10.93;4.75;;;18.90;99.90;;;;;;5036283;28;95814;-76
2022/10/22 10:07:57;;;;;;;10.43;4.87;;;19.00;99.90;;;;;;5037635;28;94513;-76
2022/10/22 10:10:46;;;;;;;7.82;4.25;;;19.10;99.90;;;;;;5035418;27;92502;-77
2022/10/22 10:13:16;;;;;;;7.20;3.97;;;19.20;99.90;;;;;;5053209;27;92423;-76
2022/10/22 10:16:14;;;;;;;9.98;4.68;;;19.20;99.90;;;;;;5036652;27;93314;-76
2022/10/22 10:18:56;;;;;;;10.82;5.10;;;19.30;99.90;;;;;;5036028;28;94037;-76
2022/10/22 10:21:32;;;;;;;7.88;4.50;;;19.20;99.90;;;;;;5036282;28;92503;-76
2022/10/22 10:24:28;;;;;;;7.15;3.75;;;19.20;99.90;;;;;;5035940;28;91790;-76
2022/10/22 10:27:02;;;;;;;9.05;5.22;;;19.10;99.90;;;;;;5037333;28;92934;-76
2022/10/22 10:29:41;;;;;;;7.72;4.10;;;19.10;99.90;;;;;;5035967;28;92836;-76
2022/10/22 10:32:33;;;;;;;9.48;4.90;;;19.20;99.90;;;;;;5036203;27;94861;-76
2022/10/22 10:35:25;;;;;;;11.68;4.75;;;19.20;99.90;;;;;;5035966;28;92593;-76
2022/10/22 10:38:27;;;;;;;12.02;5.13;;;19.10;99.90;;;;;;5036776;28;93007;-76
2022/10/22 10:41:17;;;;;;;9.00;4.20;;;19.20;99.90;;;;;;5035103;28;94124;-76
2022/10/22 10:44:15;;;;;;;10.25;4.72;;;19.10;99.90;;;;;;5036002;28;92921;-76
2022/10/22 10:46:48;;;;;;;8.30;4.20;;;19.10;99.90;;;;;;5035187;28;92432;-76
2022/10/22 10:49:22;;;;;;;9.02;4.15;;;19.00;99.90;;;;;;5052366;27;93377;-76
2022/10/22 10:52:25;;;;;;;9.80;4.70;;;19.00;99.90;;;;;;5037110;28;93131;-76
2022/10/22 10:55:18;;;;;;;10.57;5.10;;;19.10;99.90;;;;;;5035213;28;92755;-76
2022/10/22 10:58:16;;;;;;;7.95;4.13;;;19.20;99.90;;;;;;5035096;28;92578;-78
2022/10/22 11:00:57;;;;;;;10.07;4.60;;;19.30;99.90;;;;;;5031106;28;94862;-77
2022/10/22 11:03:36;;;;;;;9.15;5.07;;;19.30;99.90;;;;;;5017936;28;98160;-78
2022/10/22 11:06:08;;;;;;;8.93;4.32;;;19.40;99.90;;;;;;5036946;27;93118;-78
2022/10/22 11:08:44;;;;;;;7.50;4.03;;;19.40;99.90;;;;;;5035241;28;92589;-77
2022/10/22 11:11:16;;;;;;;8.63;5.05;;;19.50;99.90;;;;;;5052112;27;93682;-78
2022/10/22 11:13:49;;;;;;;9.27;4.80;;;19.60;99.90;;;;;;5032807;27;92954;-78
2022/10/22 11:16:35;;;;;;;9.27;4.50;;;19.70;99.90;;;;;;5036402;27;92424;-78
2022/10/22 11:19:18;;;;;;;7.95;4.40;;;19.80;99.90;;;;;;5034367;27;91789;-78
2022/10/22 11:22:10;;;;;;;8.45;4.07;;;19.70;99.90;;;;;;5035615;28;93336;-78
2022/10/22 11:24:41;;;;;;;12.77;4.38;;;19.70;99.90;;;;;;5036242;27;92523;-77
2022/10/22 11:27:32;;;;;;;13.23;4.80;;;19.70;99.90;;;;;;5033715;28;94988;-78
2022/10/22 11:30:16;;;;;;;9.30;4.00;;;19.70;99.90;;;;;;5034787;28;92453;-78
2022/10/22 11:32:44;;;;;;;;;;;19.60;99.90;;;;;;5035032;28;93023;-77
2022/10/22 11:35:15;;;;;;;10.05;5.18;;;19.40;99.90;;;;;;5052838;27;93024;-78
2022/10/22 11:37:46;;;;;;;9.98;4.28;;;19.30;99.90;;;;;;5036300;27;92670;-78
2022/10/22 11:40:20;;;;;;;10.13;4.45;;;19.30;99.90;;;;;;5036517;27;92926;-78
2022/10/22 11:42:52;;;;;;;7.57;4.38;;;19.30;99.90;;;;;;5034620;28;93161;-78
2022/10/22 11:45:22;;;;;;;7.00;4.15;;;19.20;99.90;;;;;;5036642;27;92310;-77
2022/10/22 11:48:10;;;;;;;8.15;4.53;;;19.20;99.90;;;;;;5034165;28;92407;-78
2022/10/22 11:50:40;;;;;;;8.20;4.50;;;19.10;99.90;;;;;;5036180;27;92388;-78
2022/10/22 11:53:13;;;;;;;7.43;4.75;;;19.10;99.90;;;;;;5034188;27;95563;-78
2022/10/22 11:55:44;;;;;;;7.45;4.85;;;19.00;99.90;;;;;;5033795;28;97929;-78
2022/10/22 11:58:38;;;;;;;8.85;4.53;;;18.90;99.90;;;;;;5034854;28;92446;-77
2022/10/22 12:01:08;;;;;;;12.38;5.25;;;18.90;99.90;;;;;;5035849;28;92401;-77
2022/10/22 12:03:39;;;;;;;8.23;5.40;;;18.80;99.90;;;;;;5035677;27;93180;-77
2022/10/22 12:06:10;;;;;;;9.50;6.65;;;19.00;99.90;;;;;;5035339;28;93029;-78
2022/10/22 12:08:43;;;;;;;10.15;5.40;;;19.10;99.90;;;;;;5034213;28;92568;-78
2022/10/22 12:11:10;;;;;;;9.07;5.20;;;19.30;99.90;;;;;;5036092;27;91674;-78
2022/10/22 12:13:59;;;;;;;8.35;5.50;;;19.40;99.90;;;;;;5033582;28;95926;-78
2022/10/22 12:16:32;;;;;;;9.88;5.35;;;19.40;99.90;;;;;;5034108;28;92978;-78
2022/10/22 12:19:22;;;;;;;9.68;4.93;;;19.50;99.90;;;;;;5034623;27;94740;-77
2022/10/22 12:22:07;;;;;;;9.15;5.25;;;19.50;99.90;;;;;;5033909;28;92463;-78
2022/10/22 12:24:39;;;;;;;7.70;4.53;;;19.60;99.90;;;;;;5034985;28;95691;-78
2022/10/22 12:27:25;;;;;;;6.88;4.60;;;19.60;99.90;;;;;;5050914;27;92363;-78
2022/10/22 12:30:00;;;;;;;10.45;4.80;;;19.70;99.90;;;;;;5035331;28;92326;-78
2022/10/22 12:32:36;;;;;;;7.65;4.95;;;19.70;99.90;;;;;;5034453;28;92472;-78
2022/10/22 12:35:13;;;;;;;8.10;4.70;;;19.90;99.90;;;;;;5035991;27;93456;-78
2022/10/22 12:37:41;;;;;;;10.57;6.38;;;19.90;99.90;;;;;;5038068;28;92680;-78
2022/10/22 12:40:21;;;;;;;11.27;5.38;;;19.90;99.90;;;;;;5038546;27;92566;-78
2022/10/22 12:43:00;;;;;;;9.90;5.57;;;20.00;99.90;;;;;;5038912;27;92422;-78
2022/10/22 12:45:33;;;;;;;7.75;5.20;;;20.00;99.90;;;;;;5037069;27;95538;-78
2022/10/22 12:48:20;;;;;;;11.90;5.95;;;19.90;99.90;;;;;;5038443;28;95156;-78
2022/10/22 12:50:53;;;;;;;8.38;5.55;;;19.80;99.90;;;;;;5038599;28;92416;-78
2022/10/22 12:53:26;;;;;;;6.53;5.20;;;19.60;99.90;;;;;;5037393;28;92756;-78
2022/10/22 12:55:54;;;;;;;6.97;5.55;;;19.60;99.90;;;;;;5035809;28;95728;-78
2022/10/22 12:58:27;;;;;;;5.25;4.70;;;19.60;99.90;;;;;;5028075;28;92991;-78
2022/10/22 13:01:00;;;;;;;;;;;19.70;99.90;;;;;;5018979;28;92525;-77